createdAt,value
2023-02-15T00:01:49.110Z,64.83
2023-02-15T00:04:21.176Z,64.41
2023-02-15T00:06:48.597Z,63.95
2023-02-15T00:09:15.203Z,64.83
2023-02-15T00:11:43.652Z,65.33
2023-02-15T00:14:15.750Z,66.42
2023-02-15T00:16:44.165Z,66.94
2023-02-15T00:19:12.825Z,65.92
2023-02-15T00:21:40.655Z,64.86
2023-02-15T00:24:09.302Z,64.87
2023-02-15T00:26:36.602Z,64.61
2023-02-15T00:29:03.675Z,64.22
2023-02-15T00:31:32.704Z,64.61
2023-02-15T00:34:08.442Z,65.13
2023-02-15T00:36:35.149Z,64.03
2023-02-15T00:39:01.729Z,63.78
2023-02-15T00:41:28.360Z,63.33
2023-02-15T00:43:54.943Z,63.36
2023-02-15T00:46:21.611Z,65.41
2023-02-15T00:48:48.277Z,66.80
2023-02-15T00:51:14.976Z,66.81
2023-02-15T00:53:41.676Z,66.69
2023-02-15T00:56:08.277Z,66.00
2023-02-15T00:58:34.930Z,66.07
2023-02-15T01:01:10.656Z,67.61
2023-02-15T01:03:37.301Z,66.21
2023-02-15T01:06:05.244Z,66.47
2023-02-15T01:08:32.328Z,68.06
2023-02-15T01:11:08.152Z,67.19
2023-02-15T01:13:36.105Z,66.33
2023-02-15T01:16:04.223Z,65.61
2023-02-15T01:18:31.857Z,64.95
2023-02-15T01:20:58.586Z,64.75
2023-02-15T01:23:25.226Z,65.03
2023-02-15T01:25:51.836Z,66.78
2023-02-15T01:28:18.646Z,66.90
2023-02-15T01:30:45.335Z,67.43
2023-02-15T01:33:18.720Z,66.52
2023-02-15T01:35:48.060Z,65.50
2023-02-15T01:38:15.388Z,65.95
2023-02-15T01:40:42.374Z,66.29
2023-02-15T01:43:13.252Z,66.47
2023-02-15T01:45:40.671Z,66.09
2023-02-15T01:48:21.888Z,66.44
2023-02-15T01:50:54.022Z,66.32
2023-02-15T01:53:27.084Z,66.22
2023-02-15T01:56:16.066Z,65.88
2023-02-15T01:58:44.305Z,65.98
2023-02-15T02:01:11.077Z,66.16
2023-02-15T02:03:59.165Z,66.47
2023-02-15T02:06:27.224Z,65.31
2023-02-15T02:08:55.706Z,64.81
2023-02-15T02:11:22.986Z,64.87
2023-02-15T02:13:52.806Z,65.33
2023-02-15T02:16:29.456Z,65.50
2023-02-15T02:19:05.504Z,64.80
2023-02-15T02:21:44.154Z,64.26
2023-02-15T02:24:55.592Z,63.89
2023-02-15T02:27:43.697Z,63.66
2023-02-15T02:30:35.113Z,64.38
2023-02-15T02:33:36.832Z,64.45
2023-02-15T02:36:12.326Z,63.80
2023-02-15T02:39:07.410Z,64.48
2023-02-15T02:41:55.854Z,64.70
2023-02-15T02:44:22.392Z,65.43
2023-02-15T02:46:59.546Z,65.55
2023-02-15T02:49:36.970Z,65.86
2023-02-15T02:52:06.810Z,65.94
2023-02-15T02:54:36.982Z,65.75
2023-02-15T02:57:10.261Z,66.72
2023-02-15T02:59:43.069Z,66.15
2023-02-15T03:02:16.660Z,64.83
2023-02-15T03:04:59.676Z,64.46
2023-02-15T03:07:29.822Z,63.99
2023-02-15T03:09:59.675Z,63.97
2023-02-15T03:12:33.162Z,63.96
2023-02-15T03:15:54.697Z,64.43
2023-02-15T03:18:25.560Z,63.65
2023-02-15T03:20:53.857Z,63.63
2023-02-15T03:23:25.688Z,63.82
2023-02-15T03:26:01.839Z,64.41
2023-02-15T03:28:43.208Z,64.40
2023-02-15T03:31:13.030Z,63.81
2023-02-15T03:33:45.968Z,63.59
2023-02-15T03:36:23.908Z,63.37
2023-02-15T03:39:00.776Z,63.52
2023-02-15T03:41:38.152Z,63.83
2023-02-15T03:44:12.528Z,64.10
2023-02-15T03:46:53.765Z,64.10
2023-02-15T03:49:29.778Z,64.04
2023-02-15T03:51:59.245Z,64.97
2023-02-15T03:54:45.084Z,65.30
2023-02-15T03:57:37.956Z,64.49
2023-02-15T04:00:32.696Z,64.39
2023-02-15T04:03:12.048Z,64.53
2023-02-15T04:05:39.086Z,65.95
2023-02-15T04:08:05.980Z,65.81
2023-02-15T04:10:50.996Z,65.63
2023-02-15T04:13:17.588Z,64.22
2023-02-15T04:16:03.019Z,63.57
2023-02-15T04:18:59.687Z,64.15
2023-02-15T04:21:46.644Z,64.50
2023-02-15T04:24:31.938Z,66.54
2023-02-15T04:26:59.214Z,66.82
2023-02-15T04:29:27.021Z,65.79
2023-02-15T04:31:57.121Z,65.39
2023-02-15T04:34:24.113Z,64.01
2023-02-15T04:36:51.256Z,63.47
2023-02-15T04:39:19.431Z,63.59
2023-02-15T04:41:46.638Z,63.27
2023-02-15T04:44:13.305Z,63.86
2023-02-15T04:46:39.909Z,63.69
2023-02-15T04:49:06.598Z,64.21
2023-02-15T04:51:33.182Z,64.29
2023-02-15T04:53:59.752Z,64.58
2023-02-15T04:56:26.362Z,64.85
2023-02-15T04:58:52.961Z,65.22
2023-02-15T05:01:19.558Z,64.85
2023-02-15T05:03:46.189Z,65.54
2023-02-15T05:06:12.764Z,64.83
2023-02-15T05:08:39.401Z,63.71
2023-02-15T05:11:06.050Z,64.84
2023-02-15T05:13:32.607Z,64.81
2023-02-15T05:15:59.306Z,64.63
2023-02-15T05:18:26.146Z,66.30
2023-02-15T05:20:52.832Z,66.93
2023-02-15T05:23:19.477Z,67.67
2023-02-15T05:26:08.109Z,68.03
2023-02-15T05:28:36.182Z,68.04
2023-02-15T05:31:14.627Z,66.88
2023-02-15T05:33:41.937Z,66.46
2023-02-15T05:36:08.703Z,65.70
2023-02-15T05:38:37.860Z,65.88
2023-02-15T05:41:05.617Z,64.71
2023-02-15T05:43:33.218Z,64.69
2023-02-15T05:46:00.570Z,65.91
2023-02-15T05:48:28.437Z,65.29
2023-02-15T05:51:03.760Z,64.72
2023-02-15T05:53:32.630Z,63.90
2023-02-15T05:56:01.486Z,63.82
2023-02-15T05:58:30.803Z,64.52
2023-02-15T06:00:57.729Z,64.86
2023-02-15T06:03:26.722Z,65.15
2023-02-15T06:05:53.708Z,66.74
2023-02-15T06:08:20.623Z,67.22
2023-02-15T06:10:47.677Z,65.54
2023-02-15T06:13:14.261Z,64.88
2023-02-15T06:15:40.908Z,65.99
2023-02-15T06:18:07.504Z,68.72
2023-02-15T06:20:34.089Z,69.31
2023-02-15T06:23:00.713Z,70.18
2023-02-15T06:25:27.297Z,71.02
2023-02-15T06:27:53.898Z,69.46
2023-02-15T06:30:20.706Z,67.68
2023-02-15T06:32:47.320Z,67.71
2023-02-15T06:35:13.911Z,67.42
2023-02-15T06:37:40.788Z,67.02
2023-02-15T06:40:09.081Z,66.14
2023-02-15T06:42:35.716Z,65.85
2023-02-15T06:45:02.300Z,66.31
2023-02-15T06:47:28.943Z,66.62
2023-02-15T06:49:55.602Z,69.60
2023-02-15T06:52:22.189Z,71.22
2023-02-15T06:54:48.774Z,69.13
2023-02-15T06:57:15.389Z,69.21
2023-02-15T06:59:42.060Z,67.97
2023-02-15T07:02:10.369Z,67.09
2023-02-15T07:04:37.044Z,66.94
2023-02-15T07:07:03.907Z,66.30
2023-02-15T07:09:30.534Z,66.19
2023-02-15T07:12:15.733Z,66.17
2023-02-15T07:14:42.307Z,65.85
2023-02-15T07:17:18.283Z,65.27
2023-02-15T07:19:56.138Z,66.08
2023-02-15T07:22:23.001Z,66.55
2023-02-15T07:24:50.174Z,67.79
2023-02-15T07:27:16.961Z,67.71
2023-02-15T07:29:43.599Z,67.12
2023-02-15T07:32:10.233Z,67.26
2023-02-15T07:34:36.942Z,67.23
2023-02-15T07:37:03.526Z,67.28
2023-02-15T07:39:30.111Z,67.05
2023-02-15T07:41:56.720Z,66.61
2023-02-15T07:44:23.309Z,66.47
2023-02-15T07:46:50.005Z,66.55
2023-02-15T07:49:16.689Z,65.70
2023-02-15T07:51:43.354Z,66.14
2023-02-15T07:54:09.921Z,65.94
2023-02-15T07:56:37.215Z,65.91
2023-02-15T07:59:05.998Z,65.71
2023-02-15T08:01:36.130Z,66.48
2023-02-15T08:04:03.816Z,66.22
2023-02-15T08:06:33.333Z,66.21
2023-02-15T08:09:00.653Z,66.76
2023-02-15T08:11:40.274Z,67.49
2023-02-15T08:14:14.029Z,66.71
2023-02-15T08:16:42.032Z,66.58
2023-02-15T08:19:17.633Z,65.86
2023-02-15T08:21:52.663Z,67.19
2023-02-15T08:24:21.748Z,68.00
2023-02-15T08:26:49.763Z,68.05
2023-02-15T08:29:18.310Z,67.47
2023-02-15T08:31:45.188Z,66.72
2023-02-15T08:34:15.675Z,66.20
2023-02-15T08:36:42.840Z,67.41
2023-02-15T08:39:09.580Z,67.19
2023-02-15T08:41:37.487Z,67.32
2023-02-15T08:44:07.615Z,67.20
2023-02-15T08:46:36.819Z,66.47
2023-02-15T08:49:04.128Z,66.64
2023-02-15T08:51:33.654Z,67.26
2023-02-15T08:54:02.669Z,67.73
2023-02-15T08:56:33.625Z,68.53
2023-02-15T08:59:00.478Z,69.28
2023-02-15T09:01:30.304Z,68.57
2023-02-15T09:03:59.760Z,68.04
2023-02-15T09:06:27.443Z,67.55
2023-02-15T09:08:55.466Z,67.49
2023-02-15T09:11:27.253Z,66.76
2023-02-15T09:14:03.439Z,66.58
2023-02-15T09:16:32.913Z,66.29
2023-02-15T09:19:02.351Z,66.33
2023-02-15T09:21:29.926Z,66.54
2023-02-15T09:24:00.644Z,68.41
2023-02-15T09:26:29.373Z,66.85
2023-02-15T09:28:58.524Z,66.90
2023-02-15T09:31:27.979Z,67.16
2023-02-15T09:33:55.353Z,67.55
2023-02-15T09:36:27.675Z,66.82
2023-02-15T09:39:09.523Z,66.39
2023-02-15T09:41:56.817Z,66.85
2023-02-15T09:44:26.585Z,68.38
2023-02-15T09:47:21.026Z,72.55
2023-02-15T09:49:59.563Z,72.63
2023-02-15T09:52:44.489Z,71.99
2023-02-15T09:55:17.998Z,70.18
2023-02-15T09:58:06.281Z,69.66
2023-02-15T10:00:42.660Z,68.78
2023-02-15T10:03:15.620Z,69.65
2023-02-15T10:05:48.237Z,68.87
2023-02-15T10:08:52.670Z,67.97
2023-02-15T10:11:45.119Z,67.29
2023-02-15T10:14:28.696Z,67.29
2023-02-15T10:17:03.347Z,67.22
2023-02-15T10:19:51.860Z,67.01
2023-02-15T10:22:25.862Z,66.82
2023-02-15T10:25:30.676Z,67.50
2023-02-15T10:28:06.267Z,66.28
2023-02-15T10:30:35.802Z,66.78
2023-02-15T10:33:05.355Z,67.31
2023-02-15T10:36:22.322Z,66.88
2023-02-15T10:39:17.257Z,66.38
2023-02-15T10:42:12.065Z,66.65
2023-02-15T10:44:55.618Z,66.86
2023-02-15T10:47:51.772Z,66.61
2023-02-15T10:50:41.880Z,66.65
2023-02-15T10:53:31.804Z,66.36
2023-02-15T10:56:24.916Z,65.97
2023-02-15T10:58:57.458Z,66.35
2023-02-15T11:01:50.935Z,66.35
2023-02-15T11:04:17.577Z,65.90
2023-02-15T11:06:52.314Z,67.86
2023-02-15T11:09:22.885Z,68.57
2023-02-15T11:11:54.335Z,67.89
2023-02-15T11:14:44.985Z,67.05
2023-02-15T11:17:17.458Z,67.05
2023-02-15T11:19:59.020Z,68.14
2023-02-15T11:22:26.180Z,67.79
2023-02-15T11:24:53.096Z,67.28
2023-02-15T11:27:27.135Z,67.61
2023-02-15T11:30:14.615Z,70.72
2023-02-15T11:32:45.422Z,70.35
2023-02-15T11:35:12.026Z,70.43
2023-02-15T11:37:47.539Z,71.17
2023-02-15T11:40:23.230Z,70.34
2023-02-15T11:42:52.953Z,70.34
2023-02-15T11:45:30.948Z,70.10
2023-02-15T11:47:59.429Z,68.00
2023-02-15T11:50:32.544Z,67.77
2023-02-15T11:53:18.140Z,67.32
2023-02-15T11:55:46.519Z,67.55
2023-02-15T11:58:42.943Z,67.09
2023-02-15T12:01:12.791Z,67.28
2023-02-15T12:03:45.629Z,69.06
2023-02-15T12:06:18.088Z,70.41
2023-02-15T12:08:51.566Z,69.48
2023-02-15T12:11:27.905Z,72.17
2023-02-15T12:13:59.908Z,73.27
2023-02-15T12:16:29.167Z,72.47
2023-02-15T12:19:01.094Z,71.91
2023-02-15T12:21:31.161Z,71.70
2023-02-15T12:24:04.618Z,70.99
2023-02-15T12:26:36.540Z,71.07
2023-02-15T12:29:13.780Z,70.90
2023-02-15T12:31:42.966Z,69.49
2023-02-15T12:34:32.611Z,68.07
2023-02-15T12:37:08.778Z,68.67
2023-02-15T12:39:35.409Z,69.58
2023-02-15T12:42:05.996Z,69.52
2023-02-15T12:44:35.233Z,69.21
2023-02-15T12:47:07.264Z,69.65
2023-02-15T12:49:36.224Z,69.32
2023-02-15T12:52:26.443Z,68.66
2023-02-15T12:54:53.132Z,67.63
2023-02-15T12:57:22.884Z,67.46
2023-02-15T12:59:54.556Z,67.26
2023-02-15T13:02:28.425Z,66.96
2023-02-15T13:04:56.957Z,68.55
2023-02-15T13:07:25.944Z,70.67
2023-02-15T13:09:52.658Z,69.55
2023-02-15T13:12:35.108Z,70.87
2023-02-15T13:15:03.421Z,72.14
2023-02-15T13:17:35.524Z,70.79
2023-02-15T13:20:08.362Z,71.92
2023-02-15T13:22:43.299Z,70.41
2023-02-15T13:25:21.445Z,71.03
2023-02-15T13:27:54.318Z,72.53
2023-02-15T13:30:43.178Z,71.44
2023-02-15T13:33:27.409Z,70.28
2023-02-15T13:36:21.313Z,69.64
2023-02-15T13:39:02.219Z,68.51
2023-02-15T13:41:36.568Z,68.10
2023-02-15T13:44:22.256Z,70.22
2023-02-15T13:47:07.113Z,69.22
2023-02-15T13:49:57.369Z,69.91
2023-02-15T13:52:26.129Z,69.70
2023-02-15T13:55:28.280Z,68.55
2023-02-15T13:58:16.458Z,68.37
2023-02-15T14:00:53.945Z,68.36
2023-02-15T14:03:36.437Z,67.57
2023-02-15T14:06:21.563Z,67.44
2023-02-15T14:09:09.090Z,70.24
2023-02-15T14:11:45.572Z,70.86
2023-02-15T14:14:21.049Z,69.62
2023-02-15T14:17:14.229Z,69.33
2023-02-15T14:19:51.074Z,69.04
2023-02-15T14:22:37.092Z,69.38
2023-02-15T14:25:42.153Z,68.02
2023-02-15T14:28:16.205Z,69.61
2023-02-15T14:30:48.248Z,70.23
2023-02-15T14:33:15.081Z,71.84
2023-02-15T14:35:43.462Z,71.00
2023-02-15T14:38:31.294Z,69.17
2023-02-15T14:41:20.268Z,69.67
2023-02-15T14:44:28.060Z,68.12
2023-02-15T14:47:13.483Z,67.61
2023-02-15T14:49:41.465Z,68.22
2023-02-15T14:52:11.747Z,71.42
2023-02-15T14:54:38.256Z,70.26
2023-02-15T14:57:06.582Z,70.77
2023-02-15T14:59:53.949Z,69.23
2023-02-15T15:02:44.852Z,68.37
2023-02-15T15:05:30.687Z,70.30
2023-02-15T15:08:00.743Z,69.13
2023-02-15T15:10:27.268Z,69.51
2023-02-15T15:12:55.724Z,67.82
2023-02-15T15:15:28.629Z,67.87
2023-02-15T15:18:08.384Z,67.97
2023-02-15T15:20:49.556Z,68.76
2023-02-15T15:23:17.534Z,68.44
2023-02-15T15:25:49.226Z,67.02
2023-02-15T15:28:34.147Z,66.69
2023-02-15T15:31:16.124Z,67.82
2023-02-15T15:34:00.958Z,68.57
2023-02-15T15:36:42.836Z,70.99
2023-02-15T15:39:12.101Z,71.37
2023-02-15T15:41:45.524Z,71.45
2023-02-15T15:45:00.204Z,69.43
2023-02-15T15:47:35.799Z,67.43
2023-02-15T15:50:12.235Z,67.02
2023-02-15T15:52:40.541Z,66.61
2023-02-15T15:55:17.792Z,68.49
2023-02-15T15:57:46.755Z,68.29
2023-02-15T16:00:35.431Z,69.35
2023-02-15T16:03:02.611Z,69.17
2023-02-15T16:05:36.441Z,68.54
2023-02-15T16:08:03.118Z,67.17
2023-02-15T16:10:33.645Z,67.57
2023-02-15T16:13:01.232Z,69.30
2023-02-15T16:15:38.008Z,68.99
2023-02-15T16:18:05.581Z,69.35
2023-02-15T16:20:35.590Z,69.21
2023-02-15T16:23:23.760Z,67.80
2023-02-15T16:26:08.716Z,66.81
2023-02-15T16:28:35.427Z,69.08
2023-02-15T16:31:15.866Z,70.40
2023-02-15T16:33:43.956Z,69.43
2023-02-15T16:36:29.832Z,68.56
2023-02-15T16:38:56.358Z,67.69
2023-02-15T16:41:28.248Z,67.58
2023-02-15T16:43:59.425Z,68.12
2023-02-15T16:46:41.307Z,68.50
2023-02-15T16:49:17.140Z,70.33
2023-02-15T16:51:48.339Z,72.37
2023-02-15T16:54:21.967Z,74.89
2023-02-15T16:56:49.025Z,75.41
2023-02-15T16:59:26.981Z,76.75
2023-02-15T17:01:53.788Z,76.01
2023-02-15T17:04:23.297Z,75.48
2023-02-15T17:07:17.519Z,74.45
2023-02-15T17:09:55.280Z,72.04
2023-02-15T17:12:47.023Z,70.79
2023-02-15T17:15:30.154Z,70.03
2023-02-15T17:18:04.313Z,70.05
2023-02-15T17:20:33.945Z,71.89
2023-02-15T17:23:02.148Z,73.85
2023-02-15T17:25:43.303Z,73.32
2023-02-15T17:28:20.078Z,72.56
2023-02-15T17:30:48.053Z,70.93
2023-02-15T17:33:34.312Z,70.28
2023-02-15T17:36:15.585Z,68.76
2023-02-15T17:39:01.597Z,69.34
2023-02-15T17:41:35.191Z,70.38
2023-02-15T17:44:03.884Z,70.53
2023-02-15T17:46:37.690Z,69.19
2023-02-15T17:49:04.882Z,69.68
2023-02-15T17:51:32.258Z,73.44
2023-02-15T17:54:17.714Z,75.44
2023-02-15T17:56:44.656Z,74.70
2023-02-15T17:59:12.501Z,71.63
2023-02-15T18:02:04.089Z,71.88
2023-02-15T18:04:50.568Z,73.94
2023-02-15T18:07:37.470Z,73.59
2023-02-15T18:10:34.681Z,74.38
2023-02-15T18:13:01.312Z,73.98
2023-02-15T18:15:28.472Z,73.04
2023-02-15T18:17:55.568Z,74.83
2023-02-15T18:20:31.646Z,75.67
2023-02-15T18:22:58.299Z,74.35
2023-02-15T18:25:25.641Z,72.40
2023-02-15T18:27:55.046Z,71.49
2023-02-15T18:30:26.583Z,70.66
2023-02-15T18:32:56.833Z,72.07
2023-02-15T18:35:26.628Z,73.65
2023-02-15T18:37:54.040Z,72.46
2023-02-15T18:40:24.759Z,71.30
2023-02-15T18:42:51.385Z,71.08
2023-02-15T18:45:21.183Z,71.68
2023-02-15T18:47:48.847Z,72.17
2023-02-15T18:50:18.997Z,70.83
2023-02-15T18:52:47.578Z,70.83
2023-02-15T18:55:18.937Z,70.04
2023-02-15T18:57:47.543Z,69.59
2023-02-15T19:00:26.456Z,69.87
2023-02-15T19:02:54.034Z,70.12
2023-02-15T19:05:21.217Z,69.11
2023-02-15T19:07:50.868Z,68.69
2023-02-15T19:10:23.657Z,69.42
2023-02-15T19:12:51.214Z,71.85
2023-02-15T19:15:31.861Z,71.74
2023-02-15T19:17:58.610Z,70.25
2023-02-15T19:20:37.124Z,69.91
2023-02-15T19:23:06.052Z,68.99
2023-02-15T19:25:37.662Z,69.03
2023-02-15T19:28:14.781Z,69.05
2023-02-15T19:30:41.512Z,68.70
2023-02-15T19:33:23.770Z,68.51
2023-02-15T19:35:55.540Z,68.61
2023-02-15T19:38:26.223Z,68.98
2023-02-15T19:40:53.366Z,69.17
2023-02-15T19:43:26.908Z,69.11
2023-02-15T19:45:53.856Z,69.00
2023-02-15T19:48:20.515Z,68.65
2023-02-15T19:50:48.243Z,68.38
2023-02-15T19:53:20.624Z,69.25
2023-02-15T19:55:47.185Z,72.99
2023-02-15T19:58:19.656Z,74.27
2023-02-15T20:00:48.613Z,73.79
2023-02-15T20:03:15.989Z,71.68
2023-02-15T20:05:44.160Z,71.61
2023-02-15T20:08:19.647Z,73.33
2023-02-15T20:10:46.510Z,70.69
2023-02-15T20:13:18.282Z,69.81
2023-02-15T20:15:45.396Z,69.26
2023-02-15T20:18:12.705Z,68.27
2023-02-15T20:20:51.356Z,69.09
2023-02-15T20:23:30.892Z,70.15
2023-02-15T20:26:00.883Z,68.84
2023-02-15T20:28:30.448Z,68.90
2023-02-15T20:30:57.257Z,68.57
2023-02-15T20:33:24.047Z,68.97
2023-02-15T20:35:51.627Z,68.97
2023-02-15T20:38:30.030Z,68.62
2023-02-15T20:41:19.047Z,68.22
2023-02-15T20:43:45.714Z,68.70
2023-02-15T20:46:12.491Z,69.22
2023-02-15T20:48:39.117Z,68.72
2023-02-15T20:51:06.941Z,68.27
2023-02-15T20:53:33.694Z,68.09
2023-02-15T20:56:00.268Z,68.50
2023-02-15T20:58:29.557Z,69.42
2023-02-15T21:00:58.890Z,68.90
2023-02-15T21:03:30.891Z,69.61
2023-02-15T21:05:58.495Z,69.21
2023-02-15T21:08:25.341Z,69.82
2023-02-15T21:10:53.127Z,69.64
2023-02-15T21:13:22.816Z,69.22
2023-02-15T21:15:51.302Z,69.94
2023-02-15T21:18:30.047Z,70.12
2023-02-15T21:21:03.239Z,69.84
2023-02-15T21:23:41.824Z,68.81
2023-02-15T21:26:19.736Z,68.05
2023-02-15T21:28:47.546Z,67.17
2023-02-15T21:31:20.640Z,67.49
2023-02-15T21:33:47.204Z,67.26
2023-02-15T21:36:20.616Z,66.89
2023-02-15T21:38:48.231Z,67.12
2023-02-15T21:41:45.643Z,66.99
2023-02-15T21:44:42.871Z,67.26
2023-02-15T21:47:49.493Z,66.91
2023-02-15T21:50:38.939Z,66.87
2023-02-15T21:53:07.268Z,67.34
2023-02-15T21:55:33.898Z,67.34
2023-02-15T21:58:01.032Z,67.20
2023-02-15T22:00:30.504Z,67.74
2023-02-15T22:02:59.750Z,67.49
2023-02-15T22:05:33.873Z,66.84
2023-02-15T22:08:01.170Z,66.69
2023-02-15T22:10:31.371Z,66.87
2023-02-15T22:13:00.288Z,66.70
2023-02-15T22:15:33.197Z,66.92
2023-02-15T22:17:59.804Z,66.98
2023-02-15T22:20:26.513Z,66.29
2023-02-15T22:22:53.514Z,66.54
2023-02-15T22:25:23.370Z,66.82
2023-02-15T22:27:52.238Z,66.70
2023-02-15T22:30:24.568Z,67.12
2023-02-15T22:32:51.824Z,66.61
2023-02-15T22:35:23.159Z,66.40
2023-02-15T22:37:49.765Z,66.72
2023-02-15T22:40:18.199Z,67.38
2023-02-15T22:42:50.659Z,66.86
2023-02-15T22:45:20.108Z,66.82
2023-02-15T22:47:48.670Z,66.12
2023-02-15T22:50:21.246Z,66.41
2023-02-15T22:52:48.240Z,65.85
2023-02-15T22:55:16.692Z,66.06
2023-02-15T22:57:45.087Z,66.48
2023-02-15T23:00:19.760Z,66.37
2023-02-15T23:02:47.016Z,66.36
2023-02-15T23:05:19.811Z,66.85
2023-02-15T23:07:47.696Z,67.29
2023-02-15T23:10:21.548Z,69.19
2023-02-15T23:13:07.596Z,69.42
2023-02-15T23:15:35.156Z,68.11
2023-02-15T23:18:28.967Z,67.89
2023-02-15T23:21:15.455Z,66.84
2023-02-15T23:23:44.554Z,66.47
2023-02-15T23:26:22.216Z,66.57
2023-02-15T23:28:50.144Z,67.06
2023-02-15T23:31:24.510Z,66.89
2023-02-15T23:33:52.764Z,66.71
2023-02-15T23:36:33.110Z,66.28
2023-02-15T23:39:31.358Z,66.60
2023-02-15T23:42:00.800Z,66.22
2023-02-15T23:44:28.959Z,65.92
2023-02-15T23:46:56.598Z,66.59
2023-02-15T23:49:23.576Z,66.49
2023-02-15T23:51:55.732Z,66.44
2023-02-15T23:54:25.362Z,66.21
2023-02-15T23:57:00.418Z,66.22
2023-02-15T23:59:30.120Z,65.83
